sensor_id;sensor_type;location;lat;lon;timestamp;pressure;altitude;pressure_sealevel;temperature;humidity
72855;BME280;60991;51.278;22.550;2023-03-13T00:01:09;98817.69;;;3.79;61.61
72855;BME280;60991;51.278;22.550;2023-03-13T00:02:40;98811.66;;;3.72;61.72
72855;BME280;60991;51.278;22.550;2023-03-13T00:04:10;98817.91;;;3.77;61.90
72855;BME280;60991;51.278;22.550;2023-03-13T00:05:40;98815.88;;;3.79;61.44
72855;BME280;60991;51.278;22.550;2023-03-13T00:07:11;98811.44;;;3.80;61.56
72855;BME280;60991;51.278;22.550;2023-03-13T00:08:41;98812.44;;;3.86;61.01
72855;BME280;60991;51.278;22.550;2023-03-13T00:10:12;98814.28;;;3.72;61.92
72855;BME280;60991;51.278;22.550;2023-03-13T00:11:43;98808.47;;;3.70;62.12
72855;BME280;60991;51.278;22.550;2023-03-13T00:13:14;98811.47;;;3.73;61.32
72855;BME280;60991;51.278;22.550;2023-03-13T00:14:44;98809.63;;;3.74;61.84
72855;BME280;60991;51.278;22.550;2023-03-13T00:16:15;98813.31;;;3.66;61.32
72855;BME280;60991;51.278;22.550;2023-03-13T00:17:45;98806.00;;;3.75;61.17
72855;BME280;60991;51.278;22.550;2023-03-13T00:19:15;98810.03;;;3.84;61.01
72855;BME280;60991;51.278;22.550;2023-03-13T00:20:46;98806.66;;;3.64;60.45
72855;BME280;60991;51.278;22.550;2023-03-13T00:22:16;98809.72;;;3.47;60.78
72855;BME280;60991;51.278;22.550;2023-03-13T00:23:46;98809.56;;;3.29;61.41
72855;BME280;60991;51.278;22.550;2023-03-13T00:25:17;98808.38;;;3.12;61.89
72855;BME280;60991;51.278;22.550;2023-03-13T00:26:47;98802.34;;;3.11;61.63
72855;BME280;60991;51.278;22.550;2023-03-13T00:28:17;98816.63;;;3.22;61.62
72855;BME280;60991;51.278;22.550;2023-03-13T00:29:47;98814.41;;;3.19;61.67
72855;BME280;60991;51.278;22.550;2023-03-13T00:31:21;98808.19;;;3.13;61.74
72855;BME280;60991;51.278;22.550;2023-03-13T00:32:52;98815.03;;;3.01;62.10
72855;BME280;60991;51.278;22.550;2023-03-13T00:34:22;98808.38;;;2.86;62.15
72855;BME280;60991;51.278;22.550;2023-03-13T00:35:57;98814.41;;;2.79;62.84
72855;BME280;60991;51.278;22.550;2023-03-13T00:37:30;98807.56;;;2.78;62.66
72855;BME280;60991;51.278;22.550;2023-03-13T00:39:03;98810.81;;;2.74;63.14
72855;BME280;60991;51.278;22.550;2023-03-13T00:40:33;98803.16;;;2.72;62.56
72855;BME280;60991;51.278;22.550;2023-03-13T00:42:04;98812.81;;;2.78;62.73
72855;BME280;60991;51.278;22.550;2023-03-13T00:43:34;98809.41;;;2.78;62.46
72855;BME280;60991;51.278;22.550;2023-03-13T00:45:05;98805.94;;;2.97;62.32
72855;BME280;60991;51.278;22.550;2023-03-13T00:46:36;98809.38;;;3.04;61.66
72855;BME280;60991;51.278;22.550;2023-03-13T00:48:06;98804.13;;;3.04;62.06
72855;BME280;60991;51.278;22.550;2023-03-13T00:49:36;98803.72;;;3.01;61.44
72855;BME280;60991;51.278;22.550;2023-03-13T00:51:07;98796.47;;;3.09;61.61
72855;BME280;60991;51.278;22.550;2023-03-13T00:52:37;98787.38;;;3.19;60.88
72855;BME280;60991;51.278;22.550;2023-03-13T00:54:07;98778.31;;;3.15;60.95
72855;BME280;60991;51.278;22.550;2023-03-13T00:55:38;98775.88;;;3.20;60.87
72855;BME280;60991;51.278;22.550;2023-03-13T00:57:08;98777.69;;;3.32;60.38
72855;BME280;60991;51.278;22.550;2023-03-13T00:58:40;98765.75;;;3.43;60.14
72855;BME280;60991;51.278;22.550;2023-03-13T01:00:10;98771.34;;;3.60;59.41
72855;BME280;60991;51.278;22.550;2023-03-13T01:01:41;98766.28;;;3.65;58.83
72855;BME280;60991;51.278;22.550;2023-03-13T01:03:11;98781.47;;;3.50;58.80
72855;BME280;60991;51.278;22.550;2023-03-13T01:04:41;98777.16;;;3.68;58.28
72855;BME280;60991;51.278;22.550;2023-03-13T01:06:14;98777.81;;;3.57;58.36
72855;BME280;60991;51.278;22.550;2023-03-13T01:07:45;98773.34;;;3.64;58.31
72855;BME280;60991;51.278;22.550;2023-03-13T01:09:16;98770.31;;;3.61;57.99
72855;BME280;60991;51.278;22.550;2023-03-13T01:10:46;98765.13;;;3.47;58.58
72855;BME280;60991;51.278;22.550;2023-03-13T01:12:16;98754.88;;;3.33;58.56
72855;BME280;60991;51.278;22.550;2023-03-13T01:13:47;98755.06;;;3.38;59.35
72855;BME280;60991;51.278;22.550;2023-03-13T01:15:17;98756.69;;;3.32;59.15
72855;BME280;60991;51.278;22.550;2023-03-13T01:16:47;98757.69;;;3.38;59.19
72855;BME280;60991;51.278;22.550;2023-03-13T01:18:18;98758.63;;;3.57;58.71
72855;BME280;60991;51.278;22.550;2023-03-13T01:19:48;98767.09;;;3.65;58.60
72855;BME280;60991;51.278;22.550;2023-03-13T01:21:19;98769.44;;;3.80;58.11
72855;BME280;60991;51.278;22.550;2023-03-13T01:22:50;98766.47;;;3.70;58.03
72855;BME280;60991;51.278;22.550;2023-03-13T01:24:20;98764.03;;;3.68;57.92
72855;BME280;60991;51.278;22.550;2023-03-13T01:25:50;98755.59;;;3.53;57.99
72855;BME280;60991;51.278;22.550;2023-03-13T01:27:20;98764.50;;;3.52;58.62
72855;BME280;60991;51.278;22.550;2023-03-13T01:28:51;98751.81;;;3.42;58.48
72855;BME280;60991;51.278;22.550;2023-03-13T01:30:21;98747.78;;;3.46;58.32
72855;BME280;60991;51.278;22.550;2023-03-13T01:31:51;98751.63;;;3.37;58.64
72855;BME280;60991;51.278;22.550;2023-03-13T01:33:22;98746.16;;;3.39;58.92
72855;BME280;60991;51.278;22.550;2023-03-13T01:34:52;98741.97;;;3.31;59.07
72855;BME280;60991;51.278;22.550;2023-03-13T01:36:23;98745.38;;;3.38;58.15
72855;BME280;60991;51.278;22.550;2023-03-13T01:37:53;98748.63;;;3.34;58.72
72855;BME280;60991;51.278;22.550;2023-03-13T01:39:24;98739.28;;;3.51;58.62
72855;BME280;60991;51.278;22.550;2023-03-13T01:40:54;98733.25;;;3.44;58.11
72855;BME280;60991;51.278;22.550;2023-03-13T01:42:24;98735.19;;;3.62;58.10
72855;BME280;60991;51.278;22.550;2023-03-13T01:43:55;98736.31;;;3.79;57.46
72855;BME280;60991;51.278;22.550;2023-03-13T01:47:20;98730.16;;;3.60;57.50
72855;BME280;60991;51.278;22.550;2023-03-13T01:50:29;98723.59;;;3.82;57.36
72855;BME280;60991;51.278;22.550;2023-03-13T01:52:03;98719.34;;;3.88;57.44
72855;BME280;60991;51.278;22.550;2023-03-13T01:53:36;98719.91;;;3.90;56.99
72855;BME280;60991;51.278;22.550;2023-03-13T01:55:11;98723.00;;;3.80;57.29
72855;BME280;60991;51.278;22.550;2023-03-13T01:56:49;98720.69;;;3.97;56.93
72855;BME280;60991;51.278;22.550;2023-03-13T01:58:22;98715.13;;;4.12;56.67
72855;BME280;60991;51.278;22.550;2023-03-13T02:00:03;98707.84;;;4.14;56.77
72855;BME280;60991;51.278;22.550;2023-03-13T02:01:35;98711.44;;;4.20;56.51
72855;BME280;60991;51.278;22.550;2023-03-13T02:03:11;98701.19;;;4.11;56.38
72855;BME280;60991;51.278;22.550;2023-03-13T02:04:48;98711.56;;;4.06;56.41
72855;BME280;60991;51.278;22.550;2023-03-13T02:06:19;98705.22;;;4.14;56.71
72855;BME280;60991;51.278;22.550;2023-03-13T02:07:56;98704.59;;;4.18;56.84
72855;BME280;60991;51.278;22.550;2023-03-13T02:09:30;98703.53;;;4.26;56.29
72855;BME280;60991;51.278;22.550;2023-03-13T02:11:33;98702.50;;;4.27;56.26
72855;BME280;60991;51.278;22.550;2023-03-13T02:13:04;98706.25;;;4.38;56.63
72855;BME280;60991;51.278;22.550;2023-03-13T02:14:37;98706.69;;;4.35;56.23
72855;BME280;60991;51.278;22.550;2023-03-13T02:16:08;98708.94;;;4.31;56.51
72855;BME280;60991;51.278;22.550;2023-03-13T02:17:39;98695.19;;;4.04;56.68
72855;BME280;60991;51.278;22.550;2023-03-13T02:19:18;98710.06;;;4.17;56.53
72855;BME280;60991;51.278;22.550;2023-03-13T02:20:51;98706.72;;;4.28;56.50
72855;BME280;60991;51.278;22.550;2023-03-13T02:22:48;98713.28;;;4.19;56.29
72855;BME280;60991;51.278;22.550;2023-03-13T02:24:35;98713.69;;;4.16;56.31
72855;BME280;60991;51.278;22.550;2023-03-13T02:26:07;98714.72;;;4.15;55.99
72855;BME280;60991;51.278;22.550;2023-03-13T02:27:38;98720.06;;;4.02;56.91
72855;BME280;60991;51.278;22.550;2023-03-13T02:29:09;98720.13;;;3.89;56.84
72855;BME280;60991;51.278;22.550;2023-03-13T02:30:42;98719.66;;;3.98;56.64
72855;BME280;60991;51.278;22.550;2023-03-13T02:32:13;98719.78;;;4.10;56.47
72855;BME280;60991;51.278;22.550;2023-03-13T02:33:43;98722.72;;;3.95;56.48
72855;BME280;60991;51.278;22.550;2023-03-13T02:35:16;98722.19;;;4.11;56.28
72855;BME280;60991;51.278;22.550;2023-03-13T02:36:48;98720.94;;;4.21;56.22
72855;BME280;60991;51.278;22.550;2023-03-13T02:38:23;98729.88;;;4.13;56.18
72855;BME280;60991;51.278;22.550;2023-03-13T02:39:55;98724.03;;;4.11;56.17
72855;BME280;60991;51.278;22.550;2023-03-13T02:41:28;98721.75;;;4.21;55.90
72855;BME280;60991;51.278;22.550;2023-03-13T02:43:00;98726.03;;;4.15;55.77
72855;BME280;60991;51.278;22.550;2023-03-13T02:44:40;98725.41;;;4.13;55.99
72855;BME280;60991;51.278;22.550;2023-03-13T02:46:16;98727.78;;;3.90;56.15
72855;BME280;60991;51.278;22.550;2023-03-13T02:47:47;98726.03;;;3.77;56.62
72855;BME280;60991;51.278;22.550;2023-03-13T02:49:30;98719.97;;;3.77;56.46
72855;BME280;60991;51.278;22.550;2023-03-13T02:51:02;98718.97;;;3.78;57.02
72855;BME280;60991;51.278;22.550;2023-03-13T02:52:44;98716.50;;;3.90;56.50
72855;BME280;60991;51.278;22.550;2023-03-13T02:54:19;98717.47;;;3.95;56.15
72855;BME280;60991;51.278;22.550;2023-03-13T02:55:50;98713.22;;;3.94;56.58
72855;BME280;60991;51.278;22.550;2023-03-13T02:57:20;98707.91;;;4.07;56.30
72855;BME280;60991;51.278;22.550;2023-03-13T02:58:50;98706.41;;;4.18;56.17
72855;BME280;60991;51.278;22.550;2023-03-13T03:00:21;98698.53;;;4.18;55.87
72855;BME280;60991;51.278;22.550;2023-03-13T03:01:51;98709.06;;;4.11;56.41
72855;BME280;60991;51.278;22.550;2023-03-13T03:03:21;98704.84;;;4.10;56.84
72855;BME280;60991;51.278;22.550;2023-03-13T03:04:52;98698.84;;;4.03;56.98
72855;BME280;60991;51.278;22.550;2023-03-13T03:06:22;98696.59;;;4.07;56.79
72855;BME280;60991;51.278;22.550;2023-03-13T03:07:52;98701.59;;;4.08;56.95
72855;BME280;60991;51.278;22.550;2023-03-13T03:09:25;98693.03;;;3.95;57.69
72855;BME280;60991;51.278;22.550;2023-03-13T03:10:56;98696.81;;;4.05;57.68
72855;BME280;60991;51.278;22.550;2023-03-13T03:12:26;98702.91;;;3.99;57.79
72855;BME280;60991;51.278;22.550;2023-03-13T03:13:57;98700.78;;;4.14;57.57
72855;BME280;60991;51.278;22.550;2023-03-13T03:15:27;98707.03;;;4.13;57.54
72855;BME280;60991;51.278;22.550;2023-03-13T03:16:57;98706.16;;;3.95;58.57
72855;BME280;60991;51.278;22.550;2023-03-13T03:18:27;98718.25;;;3.96;58.61
72855;BME280;60991;51.278;22.550;2023-03-13T03:19:57;98718.69;;;3.93;59.00
72855;BME280;60991;51.278;22.550;2023-03-13T03:21:28;98716.72;;;3.88;59.51
72855;BME280;60991;51.278;22.550;2023-03-13T03:22:58;98710.00;;;3.92;59.06
72855;BME280;60991;51.278;22.550;2023-03-13T03:24:28;98710.00;;;3.92;59.20
72855;BME280;60991;51.278;22.550;2023-03-13T03:25:59;98712.97;;;4.02;59.59
72855;BME280;60991;51.278;22.550;2023-03-13T03:27:29;98709.56;;;3.95;59.55
72855;BME280;60991;51.278;22.550;2023-03-13T03:28:59;98719.63;;;4.05;59.99
72855;BME280;60991;51.278;22.550;2023-03-13T03:30:30;98712.97;;;4.02;59.70
72855;BME280;60991;51.278;22.550;2023-03-13T03:32:00;98720.06;;;4.02;59.39
72855;BME280;60991;51.278;22.550;2023-03-13T03:33:30;98713.38;;;4.06;59.35
72855;BME280;60991;51.278;22.550;2023-03-13T03:35:00;98712.81;;;3.97;60.24
72855;BME280;60991;51.278;22.550;2023-03-13T03:36:30;98713.63;;;3.91;59.79
72855;BME280;60991;51.278;22.550;2023-03-13T03:38:01;98710.25;;;3.84;60.80
72855;BME280;60991;51.278;22.550;2023-03-13T03:39:31;98706.81;;;3.83;60.86
72855;BME280;60991;51.278;22.550;2023-03-13T03:41:01;98706.34;;;3.93;60.79
72855;BME280;60991;51.278;22.550;2023-03-13T03:42:32;98710.19;;;3.97;60.11
72855;BME280;60991;51.278;22.550;2023-03-13T03:44:03;98714.03;;;3.95;61.01
72855;BME280;60991;51.278;22.550;2023-03-13T03:45:34;98706.44;;;3.80;61.46
72855;BME280;60991;51.278;22.550;2023-03-13T03:47:04;98703.69;;;3.68;62.35
72855;BME280;60991;51.278;22.550;2023-03-13T03:48:35;98702.66;;;3.69;62.17
72855;BME280;60991;51.278;22.550;2023-03-13T03:50:05;98698.38;;;3.75;62.44
72855;BME280;60991;51.278;22.550;2023-03-13T03:51:35;98698.56;;;3.80;62.18
72855;BME280;60991;51.278;22.550;2023-03-13T03:53:06;98695.97;;;3.73;62.39
72855;BME280;60991;51.278;22.550;2023-03-13T03:54:36;98693.53;;;3.72;62.57
72855;BME280;60991;51.278;22.550;2023-03-13T03:56:06;98699.41;;;3.74;62.96
72855;BME280;60991;51.278;22.550;2023-03-13T03:57:37;98700.19;;;3.74;62.72
72855;BME280;60991;51.278;22.550;2023-03-13T03:59:07;98698.25;;;3.63;63.29
72855;BME280;60991;51.278;22.550;2023-03-13T04:00:37;98700.47;;;3.66;64.10
72855;BME280;60991;51.278;22.550;2023-03-13T04:02:07;98686.75;;;3.58;64.08
72855;BME280;60991;51.278;22.550;2023-03-13T04:03:37;98690.78;;;3.67;63.75
72855;BME280;60991;51.278;22.550;2023-03-13T04:05:08;98689.50;;;3.76;63.55
72855;BME280;60991;51.278;22.550;2023-03-13T04:06:38;98689.97;;;3.66;64.34
72855;BME280;60991;51.278;22.550;2023-03-13T04:08:08;98698.13;;;3.52;65.32
72855;BME280;60991;51.278;22.550;2023-03-13T04:09:39;98696.16;;;3.34;65.91
72855;BME280;60991;51.278;22.550;2023-03-13T04:11:09;98690.75;;;3.16;66.70
72855;BME280;60991;51.278;22.550;2023-03-13T04:12:40;98691.63;;;2.96;67.56
72855;BME280;60991;51.278;22.550;2023-03-13T04:14:10;98695.06;;;2.84;68.35
72855;BME280;60991;51.278;22.550;2023-03-13T04:15:41;98692.66;;;2.95;68.45
72855;BME280;60991;51.278;22.550;2023-03-13T04:17:11;98691.00;;;3.01;68.27
72855;BME280;60991;51.278;22.550;2023-03-13T04:18:41;98701.28;;;3.02;68.13
72855;BME280;60991;51.278;22.550;2023-03-13T04:20:12;98703.50;;;2.99;68.02
72855;BME280;60991;51.278;22.550;2023-03-13T04:21:42;98701.44;;;3.21;67.71
72855;BME280;60991;51.278;22.550;2023-03-13T04:23:12;98710.50;;;3.18;67.79
72855;BME280;60991;51.278;22.550;2023-03-13T04:24:42;98700.66;;;3.13;68.40
72855;BME280;60991;51.278;22.550;2023-03-13T04:26:12;98699.00;;;3.26;68.30
72855;BME280;60991;51.278;22.550;2023-03-13T04:27:43;98698.81;;;3.27;68.25
72855;BME280;60991;51.278;22.550;2023-03-13T04:29:13;98697.19;;;3.26;68.23
72855;BME280;60991;51.278;22.550;2023-03-13T04:30:43;98698.00;;;3.27;68.80
72855;BME280;60991;51.278;22.550;2023-03-13T04:32:13;98691.41;;;3.11;69.52
72855;BME280;60991;51.278;22.550;2023-03-13T04:33:44;98691.41;;;3.11;69.69
72855;BME280;60991;51.278;22.550;2023-03-13T04:35:14;98693.38;;;3.16;69.76
72855;BME280;60991;51.278;22.550;2023-03-13T04:36:44;98694.38;;;3.21;69.23
72855;BME280;60991;51.278;22.550;2023-03-13T04:38:15;98697.25;;;3.06;69.72
72855;BME280;60991;51.278;22.550;2023-03-13T04:39:45;98694.25;;;2.90;70.98
72855;BME280;60991;51.278;22.550;2023-03-13T04:41:15;98690.06;;;2.75;71.59
72855;BME280;60991;51.278;22.550;2023-03-13T04:42:45;98691.44;;;2.85;71.19
72855;BME280;60991;51.278;22.550;2023-03-13T04:44:16;98695.69;;;2.79;71.35
72855;BME280;60991;51.278;22.550;2023-03-13T04:45:46;98693.88;;;2.86;71.55
72855;BME280;60991;51.278;22.550;2023-03-13T04:47:16;98694.50;;;2.75;71.98
72855;BME280;60991;51.278;22.550;2023-03-13T04:48:46;98695.72;;;2.72;72.29
72855;BME280;60991;51.278;22.550;2023-03-13T04:50:17;98690.47;;;2.72;72.45
72855;BME280;60991;51.278;22.550;2023-03-13T04:51:47;98686.44;;;2.70;72.61
72855;BME280;60991;51.278;22.550;2023-03-13T04:53:17;98686.63;;;2.75;72.67
72855;BME280;60991;51.278;22.550;2023-03-13T04:54:47;98687.84;;;2.72;72.71
72855;BME280;60991;51.278;22.550;2023-03-13T04:56:24;98684.22;;;2.60;73.85
72855;BME280;60991;51.278;22.550;2023-03-13T04:57:55;98695.31;;;2.56;74.16
72855;BME280;60991;51.278;22.550;2023-03-13T04:59:25;98685.03;;;2.48;74.47
72855;BME280;60991;51.278;22.550;2023-03-13T05:00:55;98677.41;;;2.39;74.82
72855;BME280;60991;51.278;22.550;2023-03-13T05:02:26;98681.41;;;2.49;74.93
72855;BME280;60991;51.278;22.550;2023-03-13T05:03:56;98686.84;;;2.60;74.88
72855;BME280;60991;51.278;22.550;2023-03-13T05:05:26;98678.19;;;2.60;75.15
72855;BME280;60991;51.278;22.550;2023-03-13T05:06:56;98678.41;;;2.52;75.94
72855;BME280;60991;51.278;22.550;2023-03-13T05:08:26;98683.22;;;2.55;77.10
72855;BME280;60991;51.278;22.550;2023-03-13T05:09:57;98674.59;;;2.41;76.71
72855;BME280;60991;51.278;22.550;2023-03-13T05:11:27;98670.34;;;2.40;77.40
72855;BME280;60991;51.278;22.550;2023-03-13T05:12:57;98672.75;;;2.41;77.72
72855;BME280;60991;51.278;22.550;2023-03-13T05:14:27;98674.16;;;2.31;78.28
72855;BME280;60991;51.278;22.550;2023-03-13T05:15:57;98679.81;;;2.41;77.41
72855;BME280;60991;51.278;22.550;2023-03-13T05:17:28;98671.53;;;2.51;77.54
72855;BME280;60991;51.278;22.550;2023-03-13T05:18:58;98671.75;;;2.56;77.19
72855;BME280;60991;51.278;22.550;2023-03-13T05:20:28;98660.66;;;2.54;77.41
72855;BME280;60991;51.278;22.550;2023-03-13T05:21:58;98673.16;;;2.58;77.44
72855;BME280;60991;51.278;22.550;2023-03-13T05:23:29;98667.91;;;2.52;77.93
72855;BME280;60991;51.278;22.550;2023-03-13T05:24:59;98656.44;;;2.53;77.78
72855;BME280;60991;51.278;22.550;2023-03-13T05:26:29;98659.25;;;2.58;77.35
72855;BME280;60991;51.278;22.550;2023-03-13T05:27:59;98662.69;;;2.52;77.62
72855;BME280;60991;51.278;22.550;2023-03-13T05:29:30;98661.25;;;2.49;77.47
72855;BME280;60991;51.278;22.550;2023-03-13T05:31:00;98655.03;;;2.50;78.03
72855;BME280;60991;51.278;22.550;2023-03-13T05:32:30;98652.81;;;2.54;77.61
72855;BME280;60991;51.278;22.550;2023-03-13T05:34:00;98665.91;;;2.54;78.24
72855;BME280;60991;51.278;22.550;2023-03-13T05:35:30;98669.50;;;2.66;77.25
72855;BME280;60991;51.278;22.550;2023-03-13T05:37:01;98665.09;;;2.53;78.22
72855;BME280;60991;51.278;22.550;2023-03-13T05:38:31;98671.94;;;2.54;77.71
72855;BME280;60991;51.278;22.550;2023-03-13T05:40:01;98661.88;;;2.58;77.61
72855;BME280;60991;51.278;22.550;2023-03-13T05:41:31;98662.25;;;2.61;78.05
72855;BME280;60991;51.278;22.550;2023-03-13T05:43:01;98673.53;;;2.68;77.72
72855;BME280;60991;51.278;22.550;2023-03-13T05:44:32;98665.63;;;2.82;77.04
72855;BME280;60991;51.278;22.550;2023-03-13T05:46:02;98668.66;;;2.85;77.13
72855;BME280;60991;51.278;22.550;2023-03-13T05:47:32;98661.34;;;3.00;76.62
72855;BME280;60991;51.278;22.550;2023-03-13T05:49:02;98658.16;;;2.92;76.80
72855;BME280;60991;51.278;22.550;2023-03-13T05:50:33;98670.06;;;2.88;77.00
72855;BME280;60991;51.278;22.550;2023-03-13T05:52:03;98664.47;;;2.77;77.91
72855;BME280;60991;51.278;22.550;2023-03-13T05:53:34;98664.84;;;2.81;76.81
72855;BME280;60991;51.278;22.550;2023-03-13T05:55:04;98674.31;;;2.82;77.64
72855;BME280;60991;51.278;22.550;2023-03-13T05:56:35;98661.22;;;2.82;77.76
72855;BME280;60991;51.278;22.550;2023-03-13T05:58:05;98659.78;;;2.79;78.00
72855;BME280;60991;51.278;22.550;2023-03-13T05:59:35;98666.03;;;2.92;77.60
72855;BME280;60991;51.278;22.550;2023-03-13T06:01:11;98657.97;;;2.80;77.50
72855;BME280;60991;51.278;22.550;2023-03-13T06:02:42;98663.84;;;2.75;77.97
72855;BME280;60991;51.278;22.550;2023-03-13T06:04:12;98663.25;;;2.67;78.71
72855;BME280;60991;51.278;22.550;2023-03-13T06:05:42;98664.06;;;2.74;78.17
72855;BME280;60991;51.278;22.550;2023-03-13T06:07:13;98663.03;;;2.82;77.51
72855;BME280;60991;51.278;22.550;2023-03-13T06:08:45;98655.19;;;2.68;78.50
72855;BME280;60991;51.278;22.550;2023-03-13T06:10:16;98652.97;;;2.65;79.00
72855;BME280;60991;51.278;22.550;2023-03-13T06:11:46;98648.53;;;2.66;78.34
72855;BME280;60991;51.278;22.550;2023-03-13T06:13:16;98648.53;;;2.72;78.32
72855;BME280;60991;51.278;22.550;2023-03-13T06:14:46;98652.94;;;2.85;78.09
72855;BME280;60991;51.278;22.550;2023-03-13T06:16:19;98647.88;;;2.90;77.94
72855;BME280;60991;51.278;22.550;2023-03-13T06:17:49;98652.09;;;2.98;78.01
72855;BME280;60991;51.278;22.550;2023-03-13T06:19:19;98645.06;;;2.85;78.19
72855;BME280;60991;51.278;22.550;2023-03-13T06:20:58;98650.72;;;2.95;78.04
72855;BME280;60991;51.278;22.550;2023-03-13T06:22:29;98647.84;;;3.03;78.06
72855;BME280;60991;51.278;22.550;2023-03-13T06:23:59;98643.19;;;3.12;76.97
72855;BME280;60991;51.278;22.550;2023-03-13T06:25:29;98646.44;;;3.01;77.31
72855;BME280;60991;51.278;22.550;2023-03-13T06:26:59;98642.19;;;3.00;77.35
72855;BME280;60991;51.278;22.550;2023-03-13T06:28:30;98654.69;;;3.04;78.05
72855;BME280;60991;51.278;22.550;2023-03-13T06:30:00;98646.47;;;2.88;77.97
72855;BME280;60991;51.278;22.550;2023-03-13T06:31:30;98645.13;;;2.72;78.83
72855;BME280;60991;51.278;22.550;2023-03-13T06:33:01;98645.91;;;2.66;79.19
72855;BME280;60991;51.278;22.550;2023-03-13T06:34:31;98645.53;;;2.69;78.82
72855;BME280;60991;51.278;22.550;2023-03-13T06:36:02;98648.75;;;2.64;79.64
72855;BME280;60991;51.278;22.550;2023-03-13T06:37:32;98647.34;;;2.62;78.94
72855;BME280;60991;51.278;22.550;2023-03-13T06:39:03;98649.16;;;2.68;78.94
72855;BME280;60991;51.278;22.550;2023-03-13T06:40:33;98632.22;;;2.70;79.47
72855;BME280;60991;51.278;22.550;2023-03-13T06:42:03;98641.09;;;2.69;79.68
72855;BME280;60991;51.278;22.550;2023-03-13T06:43:34;98634.22;;;2.75;78.78
72855;BME280;60991;51.278;22.550;2023-03-13T06:45:04;98639.66;;;2.67;78.70
72855;BME280;60991;51.278;22.550;2023-03-13T06:46:35;98631.63;;;2.62;79.56
72855;BME280;60991;51.278;22.550;2023-03-13T06:48:06;98645.91;;;2.72;79.05
72855;BME280;60991;51.278;22.550;2023-03-13T06:49:36;98631.22;;;2.71;79.54
72855;BME280;60991;51.278;22.550;2023-03-13T06:51:10;98636.66;;;2.70;78.85
72855;BME280;60991;51.278;22.550;2023-03-13T06:52:41;98644.31;;;2.65;79.87
72855;BME280;60991;51.278;22.550;2023-03-13T06:54:11;98638.88;;;2.73;79.09
72855;BME280;60991;51.278;22.550;2023-03-13T06:55:42;98646.13;;;2.71;79.18
72855;BME280;60991;51.278;22.550;2023-03-13T06:57:12;98633.44;;;2.68;79.43
72855;BME280;60991;51.278;22.550;2023-03-13T06:58:45;98637.47;;;2.70;78.84
72855;BME280;60991;51.278;22.550;2023-03-13T07:00:16;98634.63;;;2.72;79.15
72855;BME280;60991;51.278;22.550;2023-03-13T07:01:46;98639.66;;;2.67;78.84
72855;BME280;60991;51.278;22.550;2023-03-13T07:03:16;98635.63;;;2.71;78.86
72855;BME280;60991;51.278;22.550;2023-03-13T07:04:47;98653.38;;;2.69;79.28
72855;BME280;60991;51.278;22.550;2023-03-13T07:06:17;98651.78;;;2.68;78.77
72855;BME280;60991;51.278;22.550;2023-03-13T07:07:47;98648.75;;;2.71;78.62
72855;BME280;60991;51.278;22.550;2023-03-13T07:09:17;98658.41;;;2.77;78.53
72855;BME280;60991;51.278;22.550;2023-03-13T07:10:48;98654.78;;;2.78;78.14
72855;BME280;60991;51.278;22.550;2023-03-13T07:12:18;98650.91;;;2.87;77.54
72855;BME280;60991;51.278;22.550;2023-03-13T07:13:48;98647.88;;;2.90;77.53
72855;BME280;60991;51.278;22.550;2023-03-13T07:15:18;98656.38;;;2.86;77.88
72855;BME280;60991;51.278;22.550;2023-03-13T07:16:49;98653.13;;;2.90;77.77
72855;BME280;60991;51.278;22.550;2023-03-13T07:18:19;98643.66;;;2.89;77.92
72855;BME280;60991;51.278;22.550;2023-03-13T07:19:50;98646.47;;;2.88;77.95
72855;BME280;60991;51.278;22.550;2023-03-13T07:21:20;98641.03;;;2.96;77.42
72855;BME280;60991;51.278;22.550;2023-03-13T07:22:51;98638.41;;;2.96;77.21
72855;BME280;60991;51.278;22.550;2023-03-13T07:24:21;98638.16;;;2.97;77.81
72855;BME280;60991;51.278;22.550;2023-03-13T07:26:17;98653.09;;;3.03;77.42
72855;BME280;60991;51.278;22.550;2023-03-13T07:27:49;98646.22;;;3.09;77.41
72855;BME280;60991;51.278;22.550;2023-03-13T07:29:19;98644.59;;;3.08;77.37
72855;BME280;60991;51.278;22.550;2023-03-13T07:30:50;98667.59;;;3.12;77.07
72855;BME280;60991;51.278;22.550;2023-03-13T07:32:20;98647.38;;;3.20;76.79
72855;BME280;60991;51.278;22.550;2023-03-13T07:33:53;98651.59;;;3.27;76.79
72855;BME280;60991;51.278;22.550;2023-03-13T07:35:23;98641.09;;;3.34;76.11
72855;BME280;60991;51.278;22.550;2023-03-13T07:36:53;98648.56;;;3.30;76.02
72855;BME280;60991;51.278;22.550;2023-03-13T07:38:23;98644.28;;;3.36;75.81
72855;BME280;60991;51.278;22.550;2023-03-13T07:39:54;98637.22;;;3.36;76.33
72855;BME280;60991;51.278;22.550;2023-03-13T07:41:24;98632.72;;;3.50;75.93
72855;BME280;60991;51.278;22.550;2023-03-13T07:42:54;98633.94;;;3.47;75.58
72855;BME280;60991;51.278;22.550;2023-03-13T07:44:24;98628.84;;;3.53;75.17
72855;BME280;60991;51.278;22.550;2023-03-13T07:46:00;98628.41;;;3.62;75.16
72855;BME280;60991;51.278;22.550;2023-03-13T07:47:33;98629.41;;;3.68;75.37
72855;BME280;60991;51.278;22.550;2023-03-13T07:49:03;98631.59;;;3.71;74.62
72855;BME280;60991;51.278;22.550;2023-03-13T07:50:33;98627.56;;;3.68;74.41
72855;BME280;60991;51.278;22.550;2023-03-13T07:52:03;98625.75;;;3.69;74.14
72855;BME280;60991;51.278;22.550;2023-03-13T07:53:34;98633.25;;;3.65;74.14
72855;BME280;60991;51.278;22.550;2023-03-13T07:55:04;98618.09;;;3.67;74.34
72855;BME280;60991;51.278;22.550;2023-03-13T07:56:34;98620.53;;;3.62;74.29
72855;BME280;60991;51.278;22.550;2023-03-13T07:58:04;98621.38;;;3.56;74.17
72855;BME280;60991;51.278;22.550;2023-03-13T07:59:35;98614.91;;;3.59;74.24
72855;BME280;60991;51.278;22.550;2023-03-13T08:01:25;98616.69;;;3.65;73.73
72855;BME280;60991;51.278;22.550;2023-03-13T08:02:56;98608.41;;;3.68;73.53
72855;BME280;60991;51.278;22.550;2023-03-13T08:04:26;98614.44;;;3.68;74.16
72855;BME280;60991;51.278;22.550;2023-03-13T08:06:01;98613.16;;;3.77;73.55
72855;BME280;60991;51.278;22.550;2023-03-13T08:07:31;98616.94;;;3.88;72.41